Alanreed, Texas
Current Conditions -  °F | °C
As of 7:35 AM on Saturday 01 Nov 2014 (Local Time) from KPPA Reporting Station
Clear Clear  
Wind Chill: 25°   Ceiling: Unl
Heat Index: 36°   Visibility: 10mi
Dew Point: 22°   Wind: 20mph
Humidity: 59%   Direction: 170°S
Pressure: 30.27"   Gusts: 28mph
Location:  35.21°N, 100.74°W
Report Text: KPPA 011235Z AUTO 17017G24KT 10SM CLR 02/M05 A3027 RMK AO2 T00201053 PNO
Loading
Personal Weather Stations






























Interactive Weather Map New forecast layout! Learn more

10-Day Weather Forecast

Advertisements
Track Severe Weather on mobile